createdAt,value
2023-04-13T00:02:19.744Z,13.48
2023-04-13T00:05:07.666Z,12.93
2023-04-13T00:07:54.497Z,12.55
2023-04-13T00:10:41.805Z,12.70
2023-04-13T00:13:27.808Z,12.52
2023-04-13T00:16:15.914Z,12.30
2023-04-13T00:19:02.118Z,11.98
2023-04-13T00:21:48.236Z,12.68
2023-04-13T00:24:34.313Z,12.75
2023-04-13T00:27:20.501Z,13.27
2023-04-13T00:30:08.030Z,12.73
2023-04-13T00:32:53.579Z,12.30
2023-04-13T00:35:40.044Z,12.18
2023-04-13T00:38:27.340Z,12.38
2023-04-13T00:41:13.097Z,12.43
2023-04-13T00:43:59.491Z,11.55
2023-04-13T00:46:48.284Z,12.18
2023-04-13T00:49:34.942Z,14.02
2023-04-13T00:52:21.438Z,12.68
2023-04-13T00:55:07.807Z,13.30
2023-04-13T00:57:53.589Z,13.57
2023-04-13T01:00:43.081Z,13.82
2023-04-13T01:03:29.845Z,11.93
2023-04-13T01:06:42.143Z,13.18
2023-04-13T01:09:42.392Z,12.32
2023-04-13T01:12:38.530Z,11.82
2023-04-13T01:15:25.970Z,11.30
2023-04-13T01:18:15.620Z,11.88
2023-04-13T01:21:02.693Z,12.25
2023-04-13T01:24:22.727Z,12.43
2023-04-13T01:27:13.064Z,11.57
2023-04-13T01:29:59.025Z,11.25
2023-04-13T01:32:45.736Z,12.10
2023-04-13T01:35:31.975Z,11.80
2023-04-13T01:38:24.512Z,11.73
2023-04-13T01:41:11.999Z,11.30
2023-04-13T01:44:03.007Z,11.10
2023-04-13T01:46:56.232Z,12.15
2023-04-13T01:50:45.434Z,11.60
2023-04-13T01:53:44.820Z,11.25
2023-04-13T01:56:34.043Z,12.18
2023-04-13T01:59:22.551Z,14.32
2023-04-13T02:02:08.180Z,15.57
2023-04-13T02:04:54.079Z,12.43
2023-04-13T02:07:40.328Z,12.43
2023-04-13T02:10:26.573Z,11.27
2023-04-13T02:13:13.984Z,12.45
2023-04-13T02:15:59.330Z,11.52
2023-04-13T02:18:46.573Z,11.15
2023-04-13T02:21:32.154Z,11.23
2023-04-13T02:24:17.494Z,11.90
2023-04-13T02:27:04.237Z,11.43
2023-04-13T02:29:52.532Z,11.23
2023-04-13T02:32:41.152Z,11.25
2023-04-13T02:35:27.427Z,12.05
2023-04-13T02:38:12.701Z,10.60
2023-04-13T02:41:02.243Z,12.15
2023-04-13T02:43:50.222Z,11.50
2023-04-13T02:46:37.225Z,12.00
2023-04-13T02:49:28.681Z,12.32
2023-04-13T02:52:23.280Z,12.80
2023-04-13T02:55:15.891Z,12.52
2023-04-13T02:58:09.434Z,12.85
2023-04-13T03:00:55.670Z,12.57
2023-04-13T03:03:43.037Z,11.32
2023-04-13T03:06:28.751Z,11.95
2023-04-13T03:09:18.340Z,12.52
2023-04-13T03:15:05.233Z,10.80
2023-04-13T03:17:50.730Z,11.65
2023-04-13T03:20:41.948Z,16.40
2023-04-13T03:23:27.289Z,14.20
2023-04-13T03:26:12.719Z,15.32
2023-04-13T03:28:58.632Z,16.77
2023-04-13T03:31:45.978Z,12.98
2023-04-13T03:34:31.886Z,12.15
2023-04-13T03:37:21.107Z,12.65
2023-04-13T03:40:13.148Z,14.82
2023-04-13T03:43:07.123Z,15.38
2023-04-13T03:45:56.486Z,13.00
2023-04-13T03:48:42.431Z,12.38
2023-04-13T03:51:31.743Z,11.65
2023-04-13T03:54:18.384Z,12.45
2023-04-13T03:57:04.670Z,12.65
2023-04-13T03:59:52.214Z,14.43
2023-04-13T04:02:47.308Z,17.33
2023-04-13T04:05:40.493Z,13.73
2023-04-13T04:08:25.898Z,13.05
2023-04-13T04:11:14.708Z,12.95
2023-04-13T04:14:01.439Z,13.85
2023-04-13T04:16:47.085Z,12.80
2023-04-13T04:19:34.502Z,15.23
2023-04-13T04:22:19.806Z,15.07
2023-04-13T04:25:05.854Z,12.88
2023-04-13T04:27:58.192Z,13.57
2023-04-13T04:30:45.740Z,13.38
2023-04-13T04:33:35.360Z,14.40
2023-04-13T04:36:21.404Z,14.70
2023-04-13T04:42:11.003Z,14.60
2023-04-13T04:44:57.833Z,14.15
2023-04-13T04:47:49.810Z,15.63
2023-04-13T04:50:40.123Z,13.30
2023-04-13T04:53:30.119Z,14.13
2023-04-13T04:56:16.225Z,15.68
2023-04-13T04:59:06.713Z,14.63
2023-04-13T05:02:04.622Z,14.68
2023-04-13T05:04:53.147Z,13.55
2023-04-13T05:07:39.782Z,12.73
2023-04-13T05:10:28.701Z,13.65
2023-04-13T05:13:16.869Z,13.73
2023-04-13T05:16:11.025Z,13.98
2023-04-13T05:18:58.290Z,13.38
2023-04-13T05:22:10.535Z,11.80
2023-04-13T05:25:03.092Z,12.98
2023-04-13T05:27:48.677Z,12.32
2023-04-13T05:30:35.523Z,12.27
2023-04-13T05:33:23.777Z,12.95
2023-04-13T05:36:14.003Z,12.55
2023-04-13T05:39:02.586Z,14.70
2023-04-13T05:41:49.253Z,14.13
2023-04-13T05:44:36.306Z,14.55
2023-04-13T05:47:24.103Z,12.35
2023-04-13T05:50:14.967Z,11.25
2023-04-13T05:53:01.499Z,10.98
2023-04-13T05:55:55.256Z,11.25
2023-04-13T05:58:40.872Z,11.93
2023-04-13T06:01:48.356Z,11.15
2023-04-13T06:04:36.327Z,11.32
2023-04-13T06:07:23.314Z,11.10
2023-04-13T06:10:09.129Z,11.93
2023-04-13T06:12:54.762Z,13.55
2023-04-13T06:15:40.456Z,13.45
2023-04-13T06:18:28.904Z,12.30
2023-04-13T06:21:14.634Z,11.55
2023-04-13T06:24:00.321Z,11.32
2023-04-13T06:26:56.572Z,11.88
2023-04-13T06:29:42.415Z,11.98
2023-04-13T06:32:29.856Z,12.05
2023-04-13T06:35:17.353Z,11.77
2023-04-13T06:38:07.426Z,12.03
2023-04-13T06:41:05.704Z,11.63
2023-04-13T06:43:54.724Z,12.93
2023-04-13T06:46:47.399Z,11.98
2023-04-13T06:49:34.130Z,12.45
2023-04-13T06:52:21.050Z,12.25
2023-04-13T06:55:07.880Z,11.35
2023-04-13T06:57:57.324Z,10.73
2023-04-13T07:00:42.683Z,12.82
2023-04-13T07:03:28.394Z,11.95
2023-04-13T07:06:14.377Z,10.57
2023-04-13T07:09:04.347Z,10.18
2023-04-13T07:11:51.066Z,10.13
2023-04-13T07:14:40.991Z,9.88
2023-04-13T07:17:29.057Z,9.13
2023-04-13T07:20:14.621Z,9.43
2023-04-13T07:23:00.731Z,9.05
2023-04-13T07:25:51.230Z,8.85
2023-04-13T07:28:43.088Z,8.88
2023-04-13T07:31:30.786Z,7.78
2023-04-13T07:34:16.847Z,8.63
2023-04-13T07:37:05.111Z,9.63
2023-04-13T07:39:50.759Z,8.30
2023-04-13T07:42:40.026Z,8.65
2023-04-13T07:45:25.305Z,8.82
2023-04-13T07:48:11.128Z,9.27
2023-04-13T07:50:58.434Z,7.80
2023-04-13T07:53:43.923Z,8.52
2023-04-13T07:56:31.317Z,7.72
2023-04-13T07:59:19.225Z,8.50
2023-04-13T08:02:05.730Z,7.97
2023-04-13T08:04:54.645Z,7.10
2023-04-13T08:07:46.853Z,6.40
2023-04-13T08:10:35.184Z,6.68
2023-04-13T08:13:23.975Z,6.50
2023-04-13T08:16:10.419Z,4.38
2023-04-13T08:18:57.580Z,4.55
2023-04-13T08:21:43.384Z,4.97
2023-04-13T08:24:29.282Z,3.10
2023-04-13T08:27:15.179Z,2.85
2023-04-13T08:30:02.535Z,3.22
2023-04-13T08:33:00.283Z,3.00
2023-04-13T08:35:46.521Z,3.20
2023-04-13T08:38:35.587Z,2.75
2023-04-13T08:41:24.158Z,3.10
2023-04-13T08:44:13.782Z,2.95
2023-04-13T08:47:04.259Z,3.00
2023-04-13T08:49:54.198Z,3.17
2023-04-13T08:52:49.380Z,3.80
2023-04-13T08:55:43.571Z,2.78
2023-04-13T08:58:34.947Z,2.67
2023-04-13T09:01:21.935Z,3.33
2023-04-13T09:04:10.853Z,2.60
2023-04-13T09:09:48.595Z,2.67
2023-04-13T09:12:34.997Z,3.13
2023-04-13T09:15:22.625Z,2.97
2023-04-13T09:18:31.760Z,2.85
2023-04-13T09:21:37.407Z,2.72
2023-04-13T09:24:23.117Z,3.08
2023-04-13T09:27:23.201Z,3.50
2023-04-13T09:30:12.709Z,4.22
2023-04-13T09:33:05.946Z,3.30
2023-04-13T09:35:52.076Z,2.90
2023-04-13T09:38:37.765Z,3.08
2023-04-13T09:41:36.549Z,2.67
2023-04-13T09:44:28.625Z,3.28
2023-04-13T09:47:15.533Z,2.40
2023-04-13T09:50:04.766Z,2.00
2023-04-13T09:53:05.246Z,2.00
2023-04-13T09:56:00.670Z,2.58
2023-04-13T09:58:48.257Z,3.58
2023-04-13T10:01:34.463Z,2.70
2023-04-13T10:04:21.245Z,2.25
2023-04-13T10:07:07.082Z,2.03
2023-04-13T10:09:55.964Z,2.17
2023-04-13T10:12:49.590Z,1.90
2023-04-13T10:16:09.916Z,1.60
2023-04-13T10:19:03.738Z,1.90
2023-04-13T10:21:52.609Z,1.85
2023-04-13T10:24:41.650Z,2.50
2023-04-13T10:27:28.392Z,2.20
2023-04-13T10:30:17.801Z,2.40
2023-04-13T10:33:09.499Z,2.60
2023-04-13T10:36:02.391Z,2.70
2023-04-13T10:38:48.067Z,2.53
2023-04-13T10:41:34.453Z,2.72
2023-04-13T10:44:23.786Z,2.17
2023-04-13T10:47:09.932Z,2.25
2023-04-13T10:49:55.829Z,1.98
2023-04-13T10:52:41.412Z,2.78
2023-04-13T10:55:30.077Z,2.40
2023-04-13T10:58:19.644Z,3.10
2023-04-13T11:01:06.297Z,2.97
2023-04-13T11:04:04.563Z,2.63
2023-04-13T11:06:53.187Z,2.50
2023-04-13T11:09:39.296Z,2.78
2023-04-13T11:12:25.368Z,2.28
2023-04-13T11:15:11.543Z,2.30
2023-04-13T11:17:59.232Z,2.20
2023-04-13T11:20:44.588Z,2.45
2023-04-13T11:23:34.453Z,2.67
2023-04-13T11:26:38.588Z,2.10
2023-04-13T11:29:24.292Z,2.35
2023-04-13T11:32:18.895Z,2.42
2023-04-13T11:35:12.687Z,2.10
2023-04-13T11:37:59.700Z,4.82
2023-04-13T11:40:48.426Z,3.80
2023-04-13T11:43:34.179Z,2.90
2023-04-13T11:46:25.541Z,2.17
2023-04-13T11:49:11.480Z,2.58
2023-04-13T11:51:58.157Z,2.65
2023-04-13T11:54:44.882Z,2.58
2023-04-13T11:57:34.015Z,2.55
2023-04-13T12:00:27.470Z,3.20
2023-04-13T12:03:34.444Z,2.17
2023-04-13T12:06:20.902Z,2.40
2023-04-13T12:09:10.610Z,2.80
2023-04-13T12:12:20.553Z,2.43
2023-04-13T12:15:18.050Z,3.25
2023-04-13T12:18:15.634Z,3.13
2023-04-13T12:21:06.039Z,3.13
2023-04-13T12:23:59.489Z,2.88
2023-04-13T12:29:37.942Z,2.83
2023-04-13T12:32:25.125Z,2.80
2023-04-13T12:35:10.929Z,2.85
2023-04-13T12:37:56.826Z,3.08
2023-04-13T12:40:42.449Z,3.08
2023-04-13T12:43:28.905Z,3.17
2023-04-13T12:46:14.677Z,3.08
2023-04-13T12:49:00.616Z,2.75
2023-04-13T12:51:46.573Z,3.10
2023-04-13T12:54:32.521Z,2.17
2023-04-13T12:57:18.198Z,2.65
2023-04-13T13:00:10.355Z,2.83
2023-04-13T13:03:10.155Z,3.20
2023-04-13T13:05:58.754Z,3.38
2023-04-13T13:08:47.180Z,3.50
2023-04-13T13:11:34.519Z,2.67
2023-04-13T13:14:22.990Z,2.95
2023-04-13T13:17:08.626Z,2.75
2023-04-13T13:19:55.616Z,2.40
2023-04-13T13:22:42.242Z,2.25
2023-04-13T13:25:27.944Z,1.83
2023-04-13T13:28:15.278Z,2.30
2023-04-13T13:31:01.699Z,2.67
2023-04-13T13:33:48.930Z,3.00
2023-04-13T13:36:34.881Z,2.58
2023-04-13T13:39:31.309Z,2.45
2023-04-13T13:42:17.356Z,2.80
2023-04-13T13:45:02.737Z,2.70
2023-04-13T13:47:52.168Z,2.53
2023-04-13T13:50:39.648Z,2.75
2023-04-13T13:53:28.066Z,2.55
2023-04-13T13:56:14.496Z,2.45
2023-04-13T13:59:00.376Z,2.20
2023-04-13T14:01:47.108Z,2.03
2023-04-13T14:04:33.225Z,2.75
2023-04-13T14:07:18.737Z,2.50
2023-04-13T14:10:05.968Z,2.70
2023-04-13T14:12:54.591Z,2.70
2023-04-13T14:15:40.026Z,3.53
2023-04-13T14:18:27.867Z,2.03
2023-04-13T14:21:16.147Z,2.20
2023-04-13T14:24:02.215Z,2.42
2023-04-13T14:26:48.486Z,1.80
2023-04-13T14:29:34.410Z,2.03
2023-04-13T14:32:26.426Z,2.40
2023-04-13T14:37:57.941Z,2.10
2023-04-13T14:40:49.697Z,2.00
2023-04-13T14:43:39.178Z,2.65
2023-04-13T14:46:27.954Z,2.00
2023-04-13T14:49:16.297Z,2.47
2023-04-13T14:52:02.197Z,3.08
2023-04-13T14:54:47.777Z,2.15
2023-04-13T14:57:33.828Z,1.92
2023-04-13T15:00:26.066Z,2.10
2023-04-13T15:03:13.236Z,2.10
2023-04-13T15:06:03.261Z,2.03
2023-04-13T15:08:49.852Z,2.00
2023-04-13T15:11:37.936Z,1.98
2023-04-13T15:14:24.098Z,1.83
2023-04-13T15:17:09.698Z,3.60
2023-04-13T15:19:56.316Z,5.20
2023-04-13T15:22:41.919Z,10.75
2023-04-13T15:25:27.708Z,4.38
2023-04-13T15:28:14.157Z,3.25
2023-04-13T15:30:59.829Z,2.05
2023-04-13T15:33:45.486Z,1.85
2023-04-13T15:36:31.236Z,2.42
2023-04-13T15:39:16.903Z,2.30
2023-04-13T15:42:02.875Z,2.47
2023-04-13T15:44:48.672Z,3.83
2023-04-13T15:47:34.763Z,3.03
2023-04-13T15:50:20.477Z,3.58
2023-04-13T15:53:06.427Z,3.38
2023-04-13T15:55:52.239Z,3.10
2023-04-13T15:58:37.855Z,4.00
2023-04-13T16:01:23.910Z,5.40
2023-04-13T16:04:10.194Z,5.13
2023-04-13T16:07:11.842Z,4.95
2023-04-13T16:10:01.446Z,4.88
2023-04-13T16:12:50.065Z,5.53
2023-04-13T16:15:37.037Z,5.72
2023-04-13T16:18:26.173Z,6.15
2023-04-13T16:21:12.469Z,7.93
2023-04-13T16:23:58.163Z,11.07
2023-04-13T16:26:45.158Z,11.77
2023-04-13T16:29:32.748Z,23.35
2023-04-13T16:32:18.933Z,18.35
2023-04-13T16:35:04.972Z,15.25
2023-04-13T16:37:50.621Z,12.63
2023-04-13T16:40:36.501Z,11.98
2023-04-13T16:43:21.924Z,10.68
2023-04-13T16:46:07.725Z,13.45
2023-04-13T16:48:53.012Z,14.27
2023-04-13T16:51:38.577Z,17.15
2023-04-13T16:54:23.986Z,17.13
2023-04-13T16:57:09.986Z,20.35
2023-04-13T16:59:57.642Z,20.67
2023-04-13T17:02:43.265Z,16.40
2023-04-13T17:05:28.963Z,18.20
2023-04-13T17:08:16.268Z,16.52
2023-04-13T17:11:04.941Z,15.95
2023-04-13T17:13:51.469Z,15.93
2023-04-13T17:16:37.403Z,14.98
2023-04-13T17:19:23.783Z,14.20
2023-04-13T17:22:10.025Z,11.85
2023-04-13T17:24:56.195Z,11.15
2023-04-13T17:27:41.715Z,11.23
2023-04-13T17:30:28.044Z,18.40
2023-04-13T17:33:14.422Z,21.50
2023-04-13T17:36:00.101Z,17.73
2023-04-13T17:38:45.531Z,16.65
2023-04-13T17:41:30.941Z,14.90
2023-04-13T17:44:16.332Z,11.40
2023-04-13T17:47:01.922Z,11.35
2023-04-13T17:49:47.170Z,10.45
2023-04-13T17:52:32.720Z,11.07
2023-04-13T17:55:18.037Z,16.90
2023-04-13T17:58:04.184Z,11.52
2023-04-13T18:00:49.521Z,8.77
2023-04-13T18:03:35.275Z,9.23
2023-04-13T18:06:20.919Z,7.63
2023-04-13T18:09:07.356Z,11.85
2023-04-13T18:11:52.949Z,6.47
2023-04-13T18:14:38.977Z,6.50
2023-04-13T18:17:26.285Z,5.03
2023-04-13T18:20:12.432Z,4.97
2023-04-13T18:22:57.786Z,3.90
2023-04-13T18:25:43.528Z,4.70
2023-04-13T18:28:29.748Z,4.05
2023-04-13T18:31:15.768Z,4.60
2023-04-13T18:34:01.809Z,4.18
2023-04-13T18:36:47.648Z,3.65
2023-04-13T18:39:33.987Z,3.92
2023-04-13T18:42:19.403Z,4.00
2023-04-13T18:45:06.348Z,4.35
2023-04-13T18:47:52.321Z,4.25
2023-04-13T18:50:38.761Z,4.20
2023-04-13T18:53:25.071Z,4.93
2023-04-13T18:56:14.341Z,7.57
2023-04-13T18:59:00.954Z,7.55
2023-04-13T19:01:47.250Z,6.43
2023-04-13T19:04:35.180Z,6.80
2023-04-13T19:07:22.203Z,6.68
2023-04-13T19:10:08.488Z,8.10
2023-04-13T19:12:54.298Z,6.90
2023-04-13T19:15:39.646Z,6.28
2023-04-13T19:18:25.765Z,6.07
2023-04-13T19:21:11.828Z,5.10
2023-04-13T19:23:58.386Z,4.10
2023-04-13T19:26:44.704Z,4.93
2023-04-13T19:29:31.508Z,4.60
2023-04-13T19:32:17.343Z,6.18
2023-04-13T19:35:03.999Z,5.68
2023-04-13T19:37:50.000Z,4.90
2023-04-13T19:40:35.808Z,5.85
2023-04-13T19:43:23.584Z,6.30
2023-04-13T19:46:09.457Z,6.97
2023-04-13T19:48:58.951Z,6.55
2023-04-13T19:51:44.609Z,6.35
2023-04-13T19:54:30.498Z,6.25
2023-04-13T19:57:16.532Z,9.13
2023-04-13T20:00:02.872Z,6.95
2023-04-13T20:02:52.597Z,5.38
2023-04-13T20:05:39.985Z,6.07
2023-04-13T20:08:25.839Z,7.57
2023-04-13T20:11:11.941Z,8.43
2023-04-13T20:13:57.533Z,8.55
2023-04-13T20:16:43.262Z,9.18
2023-04-13T20:19:28.667Z,8.20
2023-04-13T20:22:14.284Z,8.55
2023-04-13T20:24:59.610Z,11.48
2023-04-13T20:27:45.753Z,15.02
2023-04-13T20:30:31.492Z,18.17
2023-04-13T20:33:17.226Z,21.50
2023-04-13T20:36:03.287Z,13.02
2023-04-13T20:38:48.960Z,11.35
2023-04-13T20:41:35.554Z,15.02
2023-04-13T20:44:25.989Z,16.52
2023-04-13T20:47:14.636Z,14.38
2023-04-13T20:50:00.588Z,13.30
2023-04-13T20:52:46.432Z,12.00
2023-04-13T20:55:32.404Z,12.48
2023-04-13T20:58:17.792Z,12.73
2023-04-13T21:01:03.593Z,13.52
2023-04-13T21:03:49.979Z,11.10
2023-04-13T21:06:35.384Z,16.08
2023-04-13T21:09:21.082Z,14.50
2023-04-13T21:12:06.653Z,14.88
2023-04-13T21:14:52.379Z,15.50
2023-04-13T21:17:38.188Z,14.38
2023-04-13T21:20:24.370Z,13.70
2023-04-13T21:23:13.820Z,13.68
2023-04-13T21:25:59.083Z,14.43
2023-04-13T21:28:44.444Z,13.70
2023-04-13T21:31:31.322Z,13.73
2023-04-13T21:34:18.244Z,12.50
2023-04-13T21:37:03.772Z,11.13
2023-04-13T21:39:49.698Z,9.93
2023-04-13T21:42:35.016Z,8.98
2023-04-13T21:45:20.792Z,9.93
2023-04-13T21:48:06.422Z,10.30
2023-04-13T21:50:52.785Z,11.45
2023-04-13T21:53:38.923Z,11.77
2023-04-13T21:56:24.532Z,11.63
2023-04-13T21:59:09.944Z,10.45
2023-04-13T22:01:55.592Z,11.73
2023-04-13T22:04:41.398Z,12.25
2023-04-13T22:07:39.392Z,10.98
2023-04-13T22:10:28.243Z,11.43
2023-04-13T22:13:13.779Z,11.45
2023-04-13T22:15:59.384Z,11.55
2023-04-13T22:18:45.063Z,12.68
2023-04-13T22:21:31.427Z,11.50
2023-04-13T22:24:17.121Z,10.48
2023-04-13T22:27:03.508Z,10.57
2023-04-13T22:29:49.399Z,10.60
2023-04-13T22:32:34.989Z,11.43
2023-04-13T22:35:20.611Z,10.90
2023-04-13T22:38:05.998Z,10.73
2023-04-13T22:40:51.353Z,9.82
2023-04-13T22:43:36.938Z,10.60
2023-04-13T22:46:23.056Z,10.38
2023-04-13T22:49:08.577Z,10.73
2023-04-13T22:51:53.763Z,8.38
2023-04-13T22:54:39.579Z,8.82
2023-04-13T22:57:25.770Z,8.40
2023-04-13T23:00:12.128Z,8.63
2023-04-13T23:02:57.612Z,8.82
2023-04-13T23:05:43.857Z,8.85
2023-04-13T23:08:29.496Z,8.50
2023-04-13T23:11:15.138Z,9.15
2023-04-13T23:14:00.740Z,8.77
2023-04-13T23:16:46.576Z,8.40
2023-04-13T23:19:31.955Z,8.90
2023-04-13T23:22:17.336Z,8.40
2023-04-13T23:25:02.798Z,7.93
2023-04-13T23:27:48.003Z,8.57
2023-04-13T23:30:33.429Z,8.25
2023-04-13T23:33:21.124Z,7.32
2023-04-13T23:36:07.272Z,8.38
2023-04-13T23:38:53.082Z,7.30
2023-04-13T23:41:38.460Z,8.05
2023-04-13T23:44:23.902Z,8.50
2023-04-13T23:47:09.380Z,8.30
2023-04-13T23:49:55.751Z,7.82
2023-04-13T23:52:41.351Z,7.53
2023-04-13T23:55:27.790Z,8.02
2023-04-13T23:58:13.302Z,7.40
